Overview Statistics Trail Chart Weather Telemetry Raw packets
 

This is the latest recevied weather packets stored in our database for station/object DG1GMY-10. If no packets are shown the sender has not sent any weather packets the latest 10 day(s).

<< 1 2 3 4 5 6 7 >>
Time Temp. Humidity Pressure Rain* Wind** Luminosity Snow
1788359806 30.56° C 33% 1022.2 hPa - - - -
1788356206 30.56° C 36% 1022.2 hPa - - - -
1788352606 28.89° C 41% 1022.6 hPa - - - -
1788349006 23.89° C 53% 1023 hPa - - - -
1788345406 22.22° C 63% 1023.4 hPa - - - -
1788341806 20° C 76% 1023.7 hPa - - - -
1788338206 18.89° C 85% 1023.9 hPa - - - -
1788334606 17.22° C 100% 1023.5 hPa - - - -
1788331006 15.56° C 100% 1023 hPa - - - -
1788327406 14.44° C 100% 1022.9 hPa - - - -
1788323805 13.33° C 100% 1023.1 hPa - - - -
1788320205 13.89° C 100% 1022.9 hPa - - - -
1788316605 13.89° C 100% 1022.9 hPa - - - -
1788313005 14.44° C 100% 1022.7 hPa - - - -
1788309405 15° C 100% 1023 hPa - - - -
1788305805 15.56° C 100% 1023 hPa - - - -
1788302205 16.67° C 91% 1023.3 hPa - - - -
1788298605 17.22° C 80% 1023.2 hPa - - - -
1788295005 17.78° C 75% 1023.1 hPa - - - -
1788291405 18.89° C 69% 1023 hPa - - - -
1788287804 20° C 62% 1022.7 hPa - - - -
1788284204 24.44° C 50% 1022.4 hPa - - - -
1788280604 31.11° C 33% 1022.3 hPa - - - -
1788277004 36.11° C 24% 1022.6 hPa - - - -
1788273404 34.44° C 27% 1022.6 hPa - - - -

* Rain since midnight (hover to see other rain measurements)
** Current wind speed in m/s (hover to see current wind gust speed)